sensor_id;sensor_type;location;lat;lon;timestamp;P1;durP1;ratioP1;P2;durP2;ratioP2
39864;SDS011;25538;48.392;9.976;2022-10-17T00:01:46;5.00;;;4.60;;
39864;SDS011;25538;48.392;9.976;2022-10-17T00:04:12;4.80;;;4.30;;
39864;SDS011;25538;48.392;9.976;2022-10-17T00:06:38;6.47;;;4.30;;
39864;SDS011;25538;48.392;9.976;2022-10-17T00:09:04;6.10;;;4.45;;
39864;SDS011;25538;48.392;9.976;2022-10-17T00:11:30;6.93;;;4.70;;
39864;SDS011;25538;48.392;9.976;2022-10-17T00:13:56;7.20;;;3.73;;
39864;SDS011;25538;48.392;9.976;2022-10-17T00:16:23;5.87;;;3.87;;
39864;SDS011;25538;48.392;9.976;2022-10-17T00:18:53;4.38;;;4.00;;
39864;SDS011;25538;48.392;9.976;2022-10-17T00:21:20;4.63;;;4.22;;
39864;SDS011;25538;48.392;9.976;2022-10-17T00:23:47;5.18;;;4.68;;
39864;SDS011;25538;48.392;9.976;2022-10-17T00:26:14;9.88;;;4.15;;
39864;SDS011;25538;48.392;9.976;2022-10-17T00:28:40;5.22;;;4.22;;
39864;SDS011;25538;48.392;9.976;2022-10-17T00:31:07;4.18;;;3.72;;
39864;SDS011;25538;48.392;9.976;2022-10-17T00:33:33;6.00;;;4.40;;
39864;SDS011;25538;48.392;9.976;2022-10-17T00:36:03;4.03;;;3.75;;
39864;SDS011;25538;48.392;9.976;2022-10-17T00:38:38;5.38;;;4.47;;
39864;SDS011;25538;48.392;9.976;2022-10-17T00:41:05;4.78;;;4.25;;
39864;SDS011;25538;48.392;9.976;2022-10-17T00:46:36;4.95;;;4.45;;
39864;SDS011;25538;48.392;9.976;2022-10-17T00:49:04;4.82;;;4.07;;
39864;SDS011;25538;48.392;9.976;2022-10-17T00:51:33;5.15;;;4.55;;
39864;SDS011;25538;48.392;9.976;2022-10-17T00:54:08;7.57;;;5.10;;
39864;SDS011;25538;48.392;9.976;2022-10-17T00:56:37;7.65;;;4.22;;
39864;SDS011;25538;48.392;9.976;2022-10-17T00:59:04;5.75;;;4.18;;
39864;SDS011;25538;48.392;9.976;2022-10-17T01:01:33;4.72;;;3.92;;
39864;SDS011;25538;48.392;9.976;2022-10-17T01:03:59;4.68;;;3.95;;
39864;SDS011;25538;48.392;9.976;2022-10-17T01:06:25;4.30;;;4.00;;
39864;SDS011;25538;48.392;9.976;2022-10-17T01:08:51;6.73;;;4.60;;
39864;SDS011;25538;48.392;9.976;2022-10-17T01:14:08;4.70;;;4.18;;
39864;SDS011;25538;48.392;9.976;2022-10-17T01:16:56;4.20;;;3.80;;
39864;SDS011;25538;48.392;9.976;2022-10-17T01:25:29;5.78;;;3.80;;
39864;SDS011;25538;48.392;9.976;2022-10-17T01:28:29;9.55;;;4.63;;
39864;SDS011;25538;48.392;9.976;2022-10-17T01:31:22;4.13;;;3.72;;
39864;SDS011;25538;48.392;9.976;2022-10-17T01:33:59;5.70;;;4.65;;
39864;SDS011;25538;48.392;9.976;2022-10-17T01:36:56;4.78;;;3.70;;
39864;SDS011;25538;48.392;9.976;2022-10-17T01:42:05;8.18;;;3.80;;
39864;SDS011;25538;48.392;9.976;2022-10-17T01:47:20;5.35;;;3.95;;
39864;SDS011;25538;48.392;9.976;2022-10-17T01:49:52;7.00;;;3.92;;
39864;SDS011;25538;48.392;9.976;2022-10-17T01:52:26;4.93;;;3.92;;
39864;SDS011;25538;48.392;9.976;2022-10-17T01:55:15;7.93;;;3.33;;
39864;SDS011;25538;48.392;9.976;2022-10-17T01:57:49;4.35;;;4.05;;
39864;SDS011;25538;48.392;9.976;2022-10-17T02:00:20;7.03;;;4.55;;
39864;SDS011;25538;48.392;9.976;2022-10-17T02:02:48;4.82;;;4.43;;
39864;SDS011;25538;48.392;9.976;2022-10-17T02:05:20;4.20;;;3.85;;
39864;SDS011;25538;48.392;9.976;2022-10-17T02:07:50;5.10;;;3.80;;
39864;SDS011;25538;48.392;9.976;2022-10-17T02:10:21;4.73;;;3.87;;
39864;SDS011;25538;48.392;9.976;2022-10-17T02:13:08;4.70;;;4.30;;
39864;SDS011;25538;48.392;9.976;2022-10-17T02:15:45;4.55;;;3.35;;
39864;SDS011;25538;48.392;9.976;2022-10-17T02:19:22;5.20;;;4.38;;
39864;SDS011;25538;48.392;9.976;2022-10-17T02:27:13;7.55;;;4.60;;
39864;SDS011;25538;48.392;9.976;2022-10-17T02:29:46;9.73;;;4.18;;
39864;SDS011;25538;48.392;9.976;2022-10-17T02:32:20;4.45;;;4.03;;
39864;SDS011;25538;48.392;9.976;2022-10-17T02:34:53;4.20;;;3.90;;
39864;SDS011;25538;48.392;9.976;2022-10-17T02:37:22;6.22;;;4.00;;
39864;SDS011;25538;48.392;9.976;2022-10-17T02:39:51;4.82;;;4.35;;
39864;SDS011;25538;48.392;9.976;2022-10-17T02:42:20;3.65;;;3.45;;
39864;SDS011;25538;48.392;9.976;2022-10-17T02:44:48;4.78;;;3.90;;
39864;SDS011;25538;48.392;9.976;2022-10-17T02:47:20;6.13;;;3.55;;
39864;SDS011;25538;48.392;9.976;2022-10-17T02:49:52;4.28;;;3.88;;
39864;SDS011;25538;48.392;9.976;2022-10-17T02:52:34;4.40;;;4.00;;
39864;SDS011;25538;48.392;9.976;2022-10-17T02:55:22;4.13;;;3.72;;
39864;SDS011;25538;48.392;9.976;2022-10-17T02:57:55;5.10;;;3.80;;
39864;SDS011;25538;48.392;9.976;2022-10-17T03:00:28;8.80;;;4.05;;
39864;SDS011;25538;48.392;9.976;2022-10-17T03:02:56;4.97;;;4.18;;
39864;SDS011;25538;48.392;9.976;2022-10-17T03:05:27;5.13;;;4.37;;
39864;SDS011;25538;48.392;9.976;2022-10-17T03:07:54;4.22;;;3.80;;
39864;SDS011;25538;48.392;9.976;2022-10-17T03:10:20;4.32;;;4.03;;
39864;SDS011;25538;48.392;9.976;2022-10-17T03:12:46;6.40;;;4.55;;
39864;SDS011;25538;48.392;9.976;2022-10-17T03:15:13;7.20;;;4.50;;
39864;SDS011;25538;48.392;9.976;2022-10-17T03:17:39;5.93;;;4.53;;
39864;SDS011;25538;48.392;9.976;2022-10-17T03:20:05;4.27;;;3.87;;
39864;SDS011;25538;48.392;9.976;2022-10-17T03:22:31;6.65;;;5.20;;
39864;SDS011;25538;48.392;9.976;2022-10-17T03:24:57;7.47;;;4.40;;
39864;SDS011;25538;48.392;9.976;2022-10-17T03:27:23;7.47;;;4.50;;
39864;SDS011;25538;48.392;9.976;2022-10-17T03:29:50;4.18;;;3.60;;
39864;SDS011;25538;48.392;9.976;2022-10-17T03:32:16;5.17;;;4.67;;
39864;SDS011;25538;48.392;9.976;2022-10-17T03:34:41;7.47;;;4.30;;
39864;SDS011;25538;48.392;9.976;2022-10-17T03:37:07;4.30;;;4.00;;
39864;SDS011;25538;48.392;9.976;2022-10-17T03:39:33;4.70;;;4.30;;
39864;SDS011;25538;48.392;9.976;2022-10-17T03:41:59;4.57;;;4.10;;
39864;SDS011;25538;48.392;9.976;2022-10-17T03:44:25;5.53;;;4.20;;
39864;SDS011;25538;48.392;9.976;2022-10-17T03:46:51;7.30;;;3.67;;
39864;SDS011;25538;48.392;9.976;2022-10-17T03:49:17;4.83;;;4.43;;
39864;SDS011;25538;48.392;9.976;2022-10-17T03:51:42;4.43;;;3.50;;
39864;SDS011;25538;48.392;9.976;2022-10-17T03:54:08;6.03;;;4.13;;
39864;SDS011;25538;48.392;9.976;2022-10-17T03:56:34;8.97;;;4.40;;
39864;SDS011;25538;48.392;9.976;2022-10-17T03:59:00;5.50;;;4.07;;
39864;SDS011;25538;48.392;9.976;2022-10-17T04:01:26;5.30;;;4.13;;
39864;SDS011;25538;48.392;9.976;2022-10-17T04:03:52;4.07;;;3.67;;
39864;SDS011;25538;48.392;9.976;2022-10-17T04:06:20;7.10;;;4.28;;
39864;SDS011;25538;48.392;9.976;2022-10-17T04:08:47;5.53;;;4.53;;
39864;SDS011;25538;48.392;9.976;2022-10-17T04:11:14;4.65;;;4.22;;
39864;SDS011;25538;48.392;9.976;2022-10-17T04:13:42;7.72;;;4.32;;
39864;SDS011;25538;48.392;9.976;2022-10-17T04:16:11;5.05;;;4.00;;
39864;SDS011;25538;48.392;9.976;2022-10-17T04:18:38;4.97;;;3.75;;
39864;SDS011;25538;48.392;9.976;2022-10-17T04:21:04;4.73;;;4.13;;
39864;SDS011;25538;48.392;9.976;2022-10-17T04:23:31;4.78;;;3.80;;
39864;SDS011;25538;48.392;9.976;2022-10-17T04:25:58;3.97;;;3.58;;
39864;SDS011;25538;48.392;9.976;2022-10-17T04:28:25;5.75;;;5.25;;
39864;SDS011;25538;48.392;9.976;2022-10-17T04:30:58;5.28;;;4.78;;
39864;SDS011;25538;48.392;9.976;2022-10-17T04:33:29;6.25;;;4.55;;
39864;SDS011;25538;48.392;9.976;2022-10-17T04:35:56;10.27;;;4.60;;
39864;SDS011;25538;48.392;9.976;2022-10-17T04:38:23;5.25;;;4.03;;
39864;SDS011;25538;48.392;9.976;2022-10-17T04:40:49;6.10;;;3.83;;
39864;SDS011;25538;48.392;9.976;2022-10-17T04:43:15;4.83;;;4.53;;
39864;SDS011;25538;48.392;9.976;2022-10-17T04:45:41;5.07;;;4.68;;
39864;SDS011;25538;48.392;9.976;2022-10-17T04:48:07;4.73;;;4.33;;
39864;SDS011;25538;48.392;9.976;2022-10-17T04:50:32;5.60;;;5.00;;
39864;SDS011;25538;48.392;9.976;2022-10-17T04:52:58;6.30;;;4.67;;
39864;SDS011;25538;48.392;9.976;2022-10-17T04:55:24;4.53;;;4.23;;
39864;SDS011;25538;48.392;9.976;2022-10-17T04:57:50;5.13;;;4.13;;
39864;SDS011;25538;48.392;9.976;2022-10-17T05:00:16;5.10;;;4.23;;
39864;SDS011;25538;48.392;9.976;2022-10-17T05:02:42;7.07;;;4.13;;
39864;SDS011;25538;48.392;9.976;2022-10-17T05:05:08;8.23;;;5.30;;
39864;SDS011;25538;48.392;9.976;2022-10-17T05:07:34;11.80;;;5.10;;
39864;SDS011;25538;48.392;9.976;2022-10-17T05:10:03;4.82;;;4.43;;
39864;SDS011;25538;48.392;9.976;2022-10-17T05:12:29;5.07;;;4.57;;
39864;SDS011;25538;48.392;9.976;2022-10-17T05:14:55;7.83;;;4.73;;
39864;SDS011;25538;48.392;9.976;2022-10-17T05:17:21;5.77;;;4.97;;
39864;SDS011;25538;48.392;9.976;2022-10-17T05:19:47;4.97;;;4.57;;
39864;SDS011;25538;48.392;9.976;2022-10-17T05:22:13;11.57;;;5.47;;
39864;SDS011;25538;48.392;9.976;2022-10-17T05:24:39;7.10;;;5.57;;
39864;SDS011;25538;48.392;9.976;2022-10-17T05:27:05;6.60;;;5.27;;
39864;SDS011;25538;48.392;9.976;2022-10-17T05:29:31;10.10;;;5.83;;
39864;SDS011;25538;48.392;9.976;2022-10-17T05:31:56;9.00;;;5.67;;
39864;SDS011;25538;48.392;9.976;2022-10-17T05:34:23;7.28;;;5.97;;
39864;SDS011;25538;48.392;9.976;2022-10-17T05:36:49;6.78;;;5.50;;
39864;SDS011;25538;48.392;9.976;2022-10-17T05:39:15;6.50;;;5.63;;
39864;SDS011;25538;48.392;9.976;2022-10-17T05:41:44;13.30;;;8.88;;
39864;SDS011;25538;48.392;9.976;2022-10-17T05:44:10;5.85;;;5.35;;
39864;SDS011;25538;48.392;9.976;2022-10-17T05:46:38;5.03;;;4.55;;
39864;SDS011;25538;48.392;9.976;2022-10-17T05:49:04;5.88;;;5.22;;
39864;SDS011;25538;48.392;9.976;2022-10-17T05:51:31;5.60;;;4.82;;
39864;SDS011;25538;48.392;9.976;2022-10-17T05:53:57;5.60;;;5.07;;
39864;SDS011;25538;48.392;9.976;2022-10-17T05:56:23;5.50;;;5.00;;
39864;SDS011;25538;48.392;9.976;2022-10-17T05:58:49;6.63;;;5.87;;
39864;SDS011;25538;48.392;9.976;2022-10-17T06:01:15;7.40;;;6.70;;
39864;SDS011;25538;48.392;9.976;2022-10-17T06:03:42;8.48;;;4.70;;
39864;SDS011;25538;48.392;9.976;2022-10-17T06:06:09;5.50;;;5.10;;
39864;SDS011;25538;48.392;9.976;2022-10-17T06:08:36;8.13;;;7.32;;
39864;SDS011;25538;48.392;9.976;2022-10-17T06:11:03;6.45;;;5.95;;
39864;SDS011;25538;48.392;9.976;2022-10-17T06:13:30;10.05;;;5.57;;
39864;SDS011;25538;48.392;9.976;2022-10-17T06:15:56;6.30;;;4.60;;
39864;SDS011;25538;48.392;9.976;2022-10-17T06:18:22;7.93;;;4.78;;
39864;SDS011;25538;48.392;9.976;2022-10-17T06:20:48;7.32;;;5.70;;
39864;SDS011;25538;48.392;9.976;2022-10-17T06:23:14;6.32;;;5.50;;
39864;SDS011;25538;48.392;9.976;2022-10-17T06:25:40;6.63;;;3.97;;
39864;SDS011;25538;48.392;9.976;2022-10-17T06:28:06;4.40;;;4.00;;
39864;SDS011;25538;48.392;9.976;2022-10-17T06:30:32;4.73;;;4.20;;
39864;SDS011;25538;48.392;9.976;2022-10-17T06:32:58;8.20;;;4.67;;
39864;SDS011;25538;48.392;9.976;2022-10-17T06:35:23;5.13;;;4.47;;
39864;SDS011;25538;48.392;9.976;2022-10-17T06:37:49;4.90;;;4.50;;
39864;SDS011;25538;48.392;9.976;2022-10-17T06:40:15;4.60;;;4.20;;
39864;SDS011;25538;48.392;9.976;2022-10-17T06:42:41;8.40;;;5.13;;
39864;SDS011;25538;48.392;9.976;2022-10-17T06:45:08;5.22;;;4.70;;
39864;SDS011;25538;48.392;9.976;2022-10-17T06:47:34;8.32;;;5.97;;
39864;SDS011;25538;48.392;9.976;2022-10-17T06:50:00;5.78;;;5.15;;
39864;SDS011;25538;48.392;9.976;2022-10-17T06:52:26;4.80;;;4.40;;
39864;SDS011;25538;48.392;9.976;2022-10-17T06:54:52;5.10;;;4.60;;
39864;SDS011;25538;48.392;9.976;2022-10-17T06:57:18;5.17;;;4.67;;
39864;SDS011;25538;48.392;9.976;2022-10-17T06:59:43;9.63;;;4.03;;
39864;SDS011;25538;48.392;9.976;2022-10-17T07:02:09;4.80;;;4.30;;
39864;SDS011;25538;48.392;9.976;2022-10-17T07:04:36;6.68;;;4.40;;
39864;SDS011;25538;48.392;9.976;2022-10-17T07:07:02;6.25;;;5.13;;
39864;SDS011;25538;48.392;9.976;2022-10-17T07:09:29;5.82;;;4.75;;
39864;SDS011;25538;48.392;9.976;2022-10-17T07:11:56;7.45;;;4.45;;
39864;SDS011;25538;48.392;9.976;2022-10-17T07:14:22;4.40;;;4.00;;
39864;SDS011;25538;48.392;9.976;2022-10-17T07:16:50;5.20;;;4.10;;
39864;SDS011;25538;48.392;9.976;2022-10-17T07:19:16;4.70;;;4.00;;
39864;SDS011;25538;48.392;9.976;2022-10-17T07:21:42;7.30;;;3.93;;
39864;SDS011;25538;48.392;9.976;2022-10-17T07:24:07;4.53;;;4.13;;
39864;SDS011;25538;48.392;9.976;2022-10-17T07:26:33;3.93;;;3.63;;
39864;SDS011;25538;48.392;9.976;2022-10-17T07:28:59;4.30;;;4.00;;
39864;SDS011;25538;48.392;9.976;2022-10-17T07:31:26;4.25;;;3.85;;
39864;SDS011;25538;48.392;9.976;2022-10-17T07:33:51;4.40;;;3.70;;
39864;SDS011;25538;48.392;9.976;2022-10-17T07:36:17;3.73;;;3.50;;
39864;SDS011;25538;48.392;9.976;2022-10-17T07:38:43;3.78;;;3.47;;
39864;SDS011;25538;48.392;9.976;2022-10-17T07:41:10;5.40;;;3.60;;
39864;SDS011;25538;48.392;9.976;2022-10-17T07:43:37;3.97;;;3.72;;
39864;SDS011;25538;48.392;9.976;2022-10-17T07:46:03;4.03;;;3.63;;
39864;SDS011;25538;48.392;9.976;2022-10-17T07:48:30;4.90;;;3.77;;
39864;SDS011;25538;48.392;9.976;2022-10-17T07:50:57;3.20;;;3.00;;
39864;SDS011;25538;48.392;9.976;2022-10-17T07:53:26;3.47;;;3.17;;
39864;SDS011;25538;48.392;9.976;2022-10-17T07:55:52;3.67;;;3.37;;
39864;SDS011;25538;48.392;9.976;2022-10-17T07:58:18;3.63;;;3.33;;
39864;SDS011;25538;48.392;9.976;2022-10-17T08:00:44;3.43;;;3.23;;
39864;SDS011;25538;48.392;9.976;2022-10-17T08:03:12;5.20;;;3.50;;
39864;SDS011;25538;48.392;9.976;2022-10-17T08:05:38;5.50;;;4.37;;
39864;SDS011;25538;48.392;9.976;2022-10-17T08:08:04;3.80;;;3.50;;
39864;SDS011;25538;48.392;9.976;2022-10-17T08:10:30;4.93;;;3.80;;
39864;SDS011;25538;48.392;9.976;2022-10-17T08:12:56;3.80;;;3.50;;
39864;SDS011;25538;48.392;9.976;2022-10-17T08:15:23;4.90;;;4.50;;
39864;SDS011;25538;48.392;9.976;2022-10-17T08:17:50;4.30;;;4.00;;
39864;SDS011;25538;48.392;9.976;2022-10-17T08:20:16;5.00;;;3.37;;
39864;SDS011;25538;48.392;9.976;2022-10-17T08:22:42;5.37;;;3.60;;
39864;SDS011;25538;48.392;9.976;2022-10-17T08:25:15;4.77;;;3.80;;
39864;SDS011;25538;48.392;9.976;2022-10-17T08:27:41;5.30;;;4.93;;
39864;SDS011;25538;48.392;9.976;2022-10-17T08:30:07;4.13;;;3.80;;
39864;SDS011;25538;48.392;9.976;2022-10-17T08:32:33;4.07;;;3.77;;
39864;SDS011;25538;48.392;9.976;2022-10-17T08:34:59;4.60;;;4.20;;
39864;SDS011;25538;48.392;9.976;2022-10-17T08:37:25;8.00;;;4.10;;
39864;SDS011;25538;48.392;9.976;2022-10-17T08:39:51;5.80;;;5.30;;
39864;SDS011;25538;48.392;9.976;2022-10-17T08:42:26;6.47;;;4.37;;
39864;SDS011;25538;48.392;9.976;2022-10-17T08:48:12;4.20;;;3.80;;
39864;SDS011;25538;48.392;9.976;2022-10-17T08:50:46;4.63;;;4.27;;
39864;SDS011;25538;48.392;9.976;2022-10-17T08:56:04;5.03;;;3.90;;
39864;SDS011;25538;48.392;9.976;2022-10-17T08:58:37;4.50;;;4.20;;
39864;SDS011;25538;48.392;9.976;2022-10-17T09:06:50;4.40;;;4.00;;
39864;SDS011;25538;48.392;9.976;2022-10-17T09:09:44;4.20;;;3.80;;
39864;SDS011;25538;48.392;9.976;2022-10-17T09:17:57;7.13;;;4.90;;
39864;SDS011;25538;48.392;9.976;2022-10-17T09:20:44;5.63;;;4.20;;
39864;SDS011;25538;48.392;9.976;2022-10-17T09:23:20;4.50;;;4.10;;
39864;SDS011;25538;48.392;9.976;2022-10-17T09:25:52;8.10;;;4.40;;
39864;SDS011;25538;48.392;9.976;2022-10-17T09:28:31;4.50;;;4.10;;
39864;SDS011;25538;48.392;9.976;2022-10-17T09:33:46;5.07;;;4.67;;
39864;SDS011;25538;48.392;9.976;2022-10-17T09:36:18;5.00;;;4.43;;
39864;SDS011;25538;48.392;9.976;2022-10-17T09:38:53;6.40;;;4.93;;
39864;SDS011;25538;48.392;9.976;2022-10-17T09:41:35;4.50;;;4.00;;
39864;SDS011;25538;48.392;9.976;2022-10-17T09:44:23;5.40;;;5.00;;
39864;SDS011;25538;48.392;9.976;2022-10-17T09:47:05;5.20;;;4.70;;
39864;SDS011;25538;48.392;9.976;2022-10-17T09:49:48;5.10;;;4.70;;
39864;SDS011;25538;48.392;9.976;2022-10-17T09:52:24;4.60;;;4.20;;
39864;SDS011;25538;48.392;9.976;2022-10-17T09:55:03;5.27;;;4.87;;
39864;SDS011;25538;48.392;9.976;2022-10-17T09:57:53;6.37;;;4.63;;
39864;SDS011;25538;48.392;9.976;2022-10-17T10:00:24;5.83;;;4.90;;
39864;SDS011;25538;48.392;9.976;2022-10-17T10:03:07;5.57;;;5.17;;
39864;SDS011;25538;48.392;9.976;2022-10-17T10:05:56;7.40;;;5.33;;
39864;SDS011;25538;48.392;9.976;2022-10-17T10:08:25;5.27;;;4.80;;
39864;SDS011;25538;48.392;9.976;2022-10-17T10:10:57;6.87;;;5.00;;
39864;SDS011;25538;48.392;9.976;2022-10-17T10:13:29;6.30;;;5.90;;
39864;SDS011;25538;48.392;9.976;2022-10-17T10:18:56;6.30;;;4.93;;
39864;SDS011;25538;48.392;9.976;2022-10-17T10:21:24;4.47;;;4.10;;
39864;SDS011;25538;48.392;9.976;2022-10-17T10:24:12;4.07;;;3.80;;
39864;SDS011;25538;48.392;9.976;2022-10-17T10:26:44;4.37;;;4.07;;
39864;SDS011;25538;48.392;9.976;2022-10-17T10:40:03;4.13;;;3.70;;
39864;SDS011;25538;48.392;9.976;2022-10-17T10:42:33;6.20;;;4.20;;
39864;SDS011;25538;48.392;9.976;2022-10-17T10:47:55;4.33;;;2.90;;
39864;SDS011;25538;48.392;9.976;2022-10-17T10:50:39;5.63;;;4.07;;
39864;SDS011;25538;48.392;9.976;2022-10-17T10:56:04;4.30;;;3.97;;
39864;SDS011;25538;48.392;9.976;2022-10-17T11:01:38;3.63;;;3.40;;
39864;SDS011;25538;48.392;9.976;2022-10-17T11:06:46;5.80;;;4.60;;
39864;SDS011;25538;48.392;9.976;2022-10-17T11:09:39;4.90;;;4.40;;
39864;SDS011;25538;48.392;9.976;2022-10-17T11:15:44;3.60;;;3.33;;
39864;SDS011;25538;48.392;9.976;2022-10-17T11:18:23;3.70;;;3.40;;
39864;SDS011;25538;48.392;9.976;2022-10-17T11:21:09;3.33;;;3.10;;
39864;SDS011;25538;48.392;9.976;2022-10-17T11:24:02;5.70;;;2.93;;
39864;SDS011;25538;48.392;9.976;2022-10-17T11:26:34;3.10;;;2.90;;
39864;SDS011;25538;48.392;9.976;2022-10-17T11:29:08;4.77;;;3.30;;
39864;SDS011;25538;48.392;9.976;2022-10-17T11:31:38;3.07;;;2.73;;
39864;SDS011;25538;48.392;9.976;2022-10-17T11:36:38;4.83;;;3.47;;
39864;SDS011;25538;48.392;9.976;2022-10-17T11:39:13;2.90;;;2.80;;
39864;SDS011;25538;48.392;9.976;2022-10-17T11:41:46;2.77;;;2.60;;
39864;SDS011;25538;48.392;9.976;2022-10-17T11:44:20;3.00;;;2.80;;
39864;SDS011;25538;48.392;9.976;2022-10-17T11:46:57;3.30;;;3.10;;
39864;SDS011;25538;48.392;9.976;2022-10-17T11:49:29;3.20;;;3.00;;
39864;SDS011;25538;48.392;9.976;2022-10-17T11:52:06;2.90;;;2.70;;
39864;SDS011;25538;48.392;9.976;2022-10-17T11:54:58;5.00;;;2.80;;
39864;SDS011;25538;48.392;9.976;2022-10-17T12:02:51;3.73;;;2.37;;
39864;SDS011;25538;48.392;9.976;2022-10-17T12:05:41;3.53;;;3.00;;
39864;SDS011;25538;48.392;9.976;2022-10-17T12:08:23;2.70;;;2.50;;
39864;SDS011;25538;48.392;9.976;2022-10-17T12:13:45;2.90;;;2.70;;
39864;SDS011;25538;48.392;9.976;2022-10-17T12:18:44;2.90;;;2.70;;
39864;SDS011;25538;48.392;9.976;2022-10-17T12:21:17;2.63;;;2.43;;
39864;SDS011;25538;48.392;9.976;2022-10-17T12:23:50;2.60;;;2.40;;
39864;SDS011;25538;48.392;9.976;2022-10-17T12:26:27;2.63;;;2.43;;
39864;SDS011;25538;48.392;9.976;2022-10-17T12:28:54;2.50;;;2.30;;
39864;SDS011;25538;48.392;9.976;2022-10-17T12:31:22;2.83;;;2.27;;
39864;SDS011;25538;48.392;9.976;2022-10-17T12:33:53;7.50;;;2.93;;
39864;SDS011;25538;48.392;9.976;2022-10-17T12:38:51;2.60;;;2.30;;
39864;SDS011;25538;48.392;9.976;2022-10-17T12:42:20;4.00;;;2.70;;
39864;SDS011;25538;48.392;9.976;2022-10-17T12:52:21;3.40;;;2.40;;
39864;SDS011;25538;48.392;9.976;2022-10-17T12:55:32;3.43;;;2.37;;
39864;SDS011;25538;48.392;9.976;2022-10-17T13:02:47;3.20;;;2.90;;
39864;SDS011;25538;48.392;9.976;2022-10-17T13:05:27;2.70;;;2.50;;
39864;SDS011;25538;48.392;9.976;2022-10-17T13:07:56;3.13;;;2.60;;
39864;SDS011;25538;48.392;9.976;2022-10-17T13:10:26;2.83;;;2.63;;
39864;SDS011;25538;48.392;9.976;2022-10-17T13:12:59;5.67;;;2.63;;
39864;SDS011;25538;48.392;9.976;2022-10-17T13:15:33;4.43;;;2.43;;
39864;SDS011;25538;48.392;9.976;2022-10-17T13:18:00;2.80;;;2.60;;
39864;SDS011;25538;48.392;9.976;2022-10-17T13:20:27;2.70;;;2.50;;
39864;SDS011;25538;48.392;9.976;2022-10-17T13:22:56;2.23;;;2.13;;
39864;SDS011;25538;48.392;9.976;2022-10-17T13:25:22;2.37;;;2.27;;
39864;SDS011;25538;48.392;9.976;2022-10-17T13:27:50;2.33;;;2.23;;
39864;SDS011;25538;48.392;9.976;2022-10-17T13:30:28;2.43;;;2.20;;
39864;SDS011;25538;48.392;9.976;2022-10-17T13:32:56;2.33;;;2.20;;
39864;SDS011;25538;48.392;9.976;2022-10-17T13:35:43;2.60;;;2.50;;
39864;SDS011;25538;48.392;9.976;2022-10-17T13:38:09;2.77;;;2.57;;
39864;SDS011;25538;48.392;9.976;2022-10-17T13:40:41;4.07;;;2.27;;
39864;SDS011;25538;48.392;9.976;2022-10-17T13:43:13;3.90;;;2.20;;
39864;SDS011;25538;48.392;9.976;2022-10-17T13:46:00;2.40;;;2.20;;
39864;SDS011;25538;48.392;9.976;2022-10-17T13:48:29;2.93;;;2.70;;
39864;SDS011;25538;48.392;9.976;2022-10-17T13:50:59;2.17;;;1.97;;
39864;SDS011;25538;48.392;9.976;2022-10-17T13:56:05;2.63;;;2.37;;
39864;SDS011;25538;48.392;9.976;2022-10-17T13:58:49;2.40;;;2.30;;
39864;SDS011;25538;48.392;9.976;2022-10-17T14:01:22;2.60;;;2.40;;
39864;SDS011;25538;48.392;9.976;2022-10-17T14:03:50;2.93;;;2.73;;
39864;SDS011;25538;48.392;9.976;2022-10-17T14:06:17;2.33;;;2.23;;
39864;SDS011;25538;48.392;9.976;2022-10-17T14:11:14;2.60;;;2.40;;
39864;SDS011;25538;48.392;9.976;2022-10-17T14:14:00;2.57;;;2.37;;
39864;SDS011;25538;48.392;9.976;2022-10-17T14:16:33;3.27;;;2.97;;
39864;SDS011;25538;48.392;9.976;2022-10-17T14:19:05;2.57;;;2.37;;
39864;SDS011;25538;48.392;9.976;2022-10-17T14:21:39;3.30;;;2.63;;
39864;SDS011;25538;48.392;9.976;2022-10-17T14:24:39;3.30;;;2.10;;
39864;SDS011;25538;48.392;9.976;2022-10-17T14:26:59;2.50;;;2.40;;
39864;SDS011;25538;48.392;9.976;2022-10-17T14:29:29;2.87;;;2.63;;
39864;SDS011;25538;48.392;9.976;2022-10-17T14:31:58;2.13;;;2.03;;
39864;SDS011;25538;48.392;9.976;2022-10-17T14:34:36;2.47;;;2.37;;
39864;SDS011;25538;48.392;9.976;2022-10-17T14:37:08;2.80;;;2.60;;
39864;SDS011;25538;48.392;9.976;2022-10-17T14:39:49;3.07;;;2.03;;
39864;SDS011;25538;48.392;9.976;2022-10-17T14:42:19;2.00;;;1.90;;
39864;SDS011;25538;48.392;9.976;2022-10-17T14:44:48;2.23;;;2.03;;
39864;SDS011;25538;48.392;9.976;2022-10-17T14:47:24;2.30;;;2.20;;
39864;SDS011;25538;48.392;9.976;2022-10-17T14:52:37;2.90;;;2.70;;
39864;SDS011;25538;48.392;9.976;2022-10-17T14:58:00;2.80;;;2.60;;
39864;SDS011;25538;48.392;9.976;2022-10-17T15:00:26;2.77;;;2.57;;
39864;SDS011;25538;48.392;9.976;2022-10-17T15:02:53;3.10;;;2.40;;
39864;SDS011;25538;48.392;9.976;2022-10-17T15:05:20;2.50;;;2.30;;
39864;SDS011;25538;48.392;9.976;2022-10-17T15:07:47;2.97;;;2.70;;
39864;SDS011;25538;48.392;9.976;2022-10-17T15:10:24;2.73;;;2.50;;
39864;SDS011;25538;48.392;9.976;2022-10-17T15:12:50;3.93;;;2.70;;
39864;SDS011;25538;48.392;9.976;2022-10-17T15:15:16;4.50;;;2.90;;
39864;SDS011;25538;48.392;9.976;2022-10-17T15:17:42;3.03;;;2.83;;
39864;SDS011;25538;48.392;9.976;2022-10-17T15:20:11;3.20;;;3.00;;
39864;SDS011;25538;48.392;9.976;2022-10-17T15:22:40;2.80;;;2.60;;
39864;SDS011;25538;48.392;9.976;2022-10-17T15:25:06;2.10;;;2.00;;
39864;SDS011;25538;48.392;9.976;2022-10-17T15:27:33;2.57;;;2.37;;
39864;SDS011;25538;48.392;9.976;2022-10-17T15:29:59;4.90;;;2.93;;
39864;SDS011;25538;48.392;9.976;2022-10-17T15:32:25;4.57;;;2.70;;
39864;SDS011;25538;48.392;9.976;2022-10-17T15:34:51;3.10;;;2.90;;
39864;SDS011;25538;48.392;9.976;2022-10-17T15:37:23;4.50;;;3.10;;
39864;SDS011;25538;48.392;9.976;2022-10-17T15:39:51;4.63;;;2.90;;
39864;SDS011;25538;48.392;9.976;2022-10-17T15:42:19;6.20;;;3.80;;
39864;SDS011;25538;48.392;9.976;2022-10-17T15:44:47;3.00;;;2.80;;
39864;SDS011;25538;48.392;9.976;2022-10-17T15:47:19;5.13;;;3.70;;
39864;SDS011;25538;48.392;9.976;2022-10-17T15:49:51;3.30;;;3.00;;
39864;SDS011;25538;48.392;9.976;2022-10-17T15:52:18;4.20;;;3.90;;
39864;SDS011;25538;48.392;9.976;2022-10-17T15:54:44;4.67;;;4.27;;
39864;SDS011;25538;48.392;9.976;2022-10-17T15:57:19;4.60;;;4.20;;
39864;SDS011;25538;48.392;9.976;2022-10-17T15:59:47;4.90;;;3.70;;
39864;SDS011;25538;48.392;9.976;2022-10-17T16:02:15;5.30;;;4.30;;
39864;SDS011;25538;48.392;9.976;2022-10-17T16:04:43;6.37;;;4.27;;
39864;SDS011;25538;48.392;9.976;2022-10-17T16:07:09;4.67;;;4.23;;
39864;SDS011;25538;48.392;9.976;2022-10-17T16:09:35;7.53;;;4.40;;
39864;SDS011;25538;48.392;9.976;2022-10-17T16:12:02;6.37;;;4.83;;
39864;SDS011;25538;48.392;9.976;2022-10-17T16:14:29;6.73;;;5.27;;
39864;SDS011;25538;48.392;9.976;2022-10-17T16:16:57;9.10;;;6.17;;
39864;SDS011;25538;48.392;9.976;2022-10-17T16:19:24;12.80;;;7.17;;
39864;SDS011;25538;48.392;9.976;2022-10-17T16:21:55;7.27;;;6.63;;
39864;SDS011;25538;48.392;9.976;2022-10-17T16:24:22;6.97;;;6.33;;
39864;SDS011;25538;48.392;9.976;2022-10-17T16:26:48;6.73;;;6.13;;
39864;SDS011;25538;48.392;9.976;2022-10-17T16:29:15;7.47;;;6.77;;
39864;SDS011;25538;48.392;9.976;2022-10-17T16:31:42;6.83;;;6.23;;
39864;SDS011;25538;48.392;9.976;2022-10-17T16:34:10;7.73;;;6.90;;
39864;SDS011;25538;48.392;9.976;2022-10-17T16:36:38;11.97;;;6.87;;
39864;SDS011;25538;48.392;9.976;2022-10-17T16:39:04;7.07;;;6.47;;
39864;SDS011;25538;48.392;9.976;2022-10-17T16:41:32;6.53;;;5.70;;
39864;SDS011;25538;48.392;9.976;2022-10-17T16:44:01;8.97;;;8.10;;
39864;SDS011;25538;48.392;9.976;2022-10-17T16:46:29;11.57;;;7.80;;
39864;SDS011;25538;48.392;9.976;2022-10-17T16:48:56;11.03;;;8.20;;
39864;SDS011;25538;48.392;9.976;2022-10-17T16:51:22;9.30;;;8.40;;
39864;SDS011;25538;48.392;9.976;2022-10-17T16:53:50;8.67;;;7.87;;
39864;SDS011;25538;48.392;9.976;2022-10-17T16:56:20;8.53;;;6.30;;
39864;SDS011;25538;48.392;9.976;2022-10-17T16:58:48;8.70;;;7.10;;